Time;durP1;ratioP1;P1;durP2;ratioP2;P2;SDS_P1;SDS_P2;PMS_P1;PMS_P2;Temp;Humidity;BMP_temperature;BMP_pressure;BME280_temperature;BME280_humidity;BME280_pressure;Samples;Min_cycle;Max_cycle;Signal;HPM_P1;HPM_P2
2021/07/01 00:00:13;;;;;;;34.33;13.90;;;14.00;98.10;;;;;;5036726;28;20038;-50
2021/07/01 00:02:41;;;;;;;32.47;13.50;;;14.00;98.10;;;;;;5036637;28;20045;-48
2021/07/01 00:05:09;;;;;;;31.80;13.80;;;14.00;98.10;;;;;;5035723;28;20069;-49
2021/07/01 00:07:35;;;;;;;31.80;13.25;;;14.00;98.10;;;;;;5010990;28;20040;-50
2021/07/01 00:10:00;;;;;;;33.78;12.80;;;14.00;98.10;;;;;;5052709;28;20049;-50
2021/07/01 00:12:26;;;;;;;41.22;13.68;;;14.00;98.30;;;;;;5019947;28;20530;-52
2021/07/01 00:14:52;;;;;;;37.95;14.13;;;14.00;98.00;;;;;;5035096;28;20041;-49
2021/07/01 00:17:18;;;;;;;33.33;13.70;;;14.00;98.00;;;;;;5036385;28;20136;-48
2021/07/01 00:19:43;;;;;;;35.38;14.45;;;14.00;98.00;;;;;;5025378;28;20038;-51
2021/07/01 00:22:09;;;;;;;34.33;13.85;;;14.00;98.10;;;;;;5044838;28;20105;-50
2021/07/01 00:24:35;;;;;;;37.20;14.27;;;14.00;98.10;;;;;;5031805;28;20037;-47
2021/07/01 00:27:00;;;;;;;41.22;14.48;;;14.00;98.00;;;;;;5027639;28;20045;-49
2021/07/01 00:29:26;;;;;;;41.20;14.25;;;14.00;98.00;;;;;;5030738;28;20051;-46
2021/07/01 00:31:52;;;;;;;34.47;14.13;;;14.00;98.00;;;;;;5042726;28;20052;-47
2021/07/01 00:34:19;;;;;;;31.13;14.40;;;13.90;98.00;;;;;;5030724;28;20045;-50
2021/07/01 00:36:45;;;;;;;35.83;14.70;;;13.90;98.10;;;;;;5023741;28;20060;-50
2021/07/01 00:39:11;;;;;;;40.58;14.77;;;13.90;98.00;;;;;;5039920;28;20049;-49
2021/07/01 00:41:37;;;;;;;39.28;14.77;;;13.90;98.10;;;;;;5033842;28;20124;-47
2021/07/01 00:44:03;;;;;;;29.65;14.40;;;13.90;98.00;;;;;;5014973;28;20559;-49
2021/07/01 00:46:31;;;;;;;32.50;14.63;;;13.90;98.00;;;;;;5032421;28;20045;-50
2021/07/01 00:48:57;;;;;;;29.95;13.25;;;13.90;98.00;;;;;;5029772;28;20104;-49
2021/07/01 00:51:23;;;;;;;34.35;14.52;;;13.90;98.10;;;;;;5045217;28;20052;-46
2021/07/01 00:53:50;;;;;;;39.10;14.85;;;13.90;98.10;;;;;;5029726;28;20401;-50
2021/07/01 00:56:16;;;;;;;32.33;14.40;;;13.90;98.10;;;;;;5032817;28;20570;-49
2021/07/01 00:58:42;;;;;;;32.30;15.45;;;13.90;98.10;;;;;;5028566;28;20040;-50
2021/07/01 01:01:09;;;;;;;34.22;14.23;;;13.90;98.10;;;;;;5000327;28;20050;-50
2021/07/01 01:03:37;;;;;;;33.60;14.07;;;13.90;98.10;;;;;;5026303;28;20053;-47
2021/07/01 01:06:04;;;;;;;30.85;14.18;;;13.90;98.30;;;;;;5031855;28;20037;-47
2021/07/01 01:08:30;;;;;;;35.65;14.13;;;13.90;98.10;;;;;;5033536;28;20053;-48
2021/07/01 01:10:56;;;;;;;32.08;14.45;;;13.90;98.00;;;;;;5022738;28;20041;-46
2021/07/01 01:13:25;;;;;;;35.90;14.73;;;13.90;98.00;;;;;;5014817;28;20323;-47
2021/07/01 01:15:59;;;;;;;34.50;13.18;;;13.90;98.00;;;;;;5031161;28;20042;-49
2021/07/01 01:18:25;;;;;;;31.58;12.68;;;13.90;98.00;;;;;;5049086;28;20051;-50
2021/07/01 01:20:53;;;;;;;32.75;13.23;;;13.90;98.00;;;;;;5034674;28;20506;-47
2021/07/01 01:23:20;;;;;;;40.30;13.35;;;13.90;98.00;;;;;;5031028;28;20037;-49
2021/07/01 01:25:50;;;;;;;35.13;12.75;;;13.90;98.00;;;;;;5052937;28;20057;-48
2021/07/01 01:28:17;;;;;;;29.35;13.05;;;13.90;97.90;;;;;;5032570;28;20053;-47
2021/07/01 01:30:44;;;;;;;33.30;12.60;;;13.90;97.90;;;;;;5030699;28;20375;-48
2021/07/01 01:33:10;;;;;;;34.53;12.60;;;13.90;97.90;;;;;;5007223;28;20069;-48
2021/07/01 01:35:38;;;;;;;34.88;12.90;;;13.90;97.90;;;;;;5005822;28;20391;-47
2021/07/01 01:38:09;;;;;;;36.47;13.20;;;13.90;97.90;;;;;;5026633;28;20124;-47
2021/07/01 01:40:36;;;;;;;36.03;12.82;;;13.90;97.90;;;;;;5025059;28;20049;-49
2021/07/01 01:43:01;;;;;;;34.85;12.95;;;13.90;97.90;;;;;;5035397;28;20045;-47
2021/07/01 01:45:27;;;;;;;37.05;13.02;;;13.90;97.90;;;;;;5035047;28;20041;-47
2021/07/01 01:47:53;;;;;;;37.45;12.85;;;13.90;97.90;;;;;;5025106;28;20041;-49
2021/07/01 01:50:23;;;;;;;41.08;13.23;;;13.90;97.90;;;;;;5037268;28;20136;-49
2021/07/01 01:52:50;;;;;;;27.20;11.82;;;13.90;97.90;;;;;;5052216;28;20037;-49
2021/07/01 01:55:17;;;;;;;35.63;13.20;;;13.90;97.90;;;;;;5032926;28;20048;-49
2021/07/01 01:57:46;;;;;;;34.28;13.27;;;13.90;97.90;;;;;;5019841;28;20083;-50
2021/07/01 02:00:13;;;;;;;36.42;12.75;;;13.90;97.80;;;;;;5052425;28;20045;-51
2021/07/01 02:02:41;;;;;;;29.65;12.65;;;13.90;97.80;;;;;;5031227;28;20065;-48
2021/07/01 02:05:08;;;;;;;28.27;12.05;;;13.90;97.90;;;;;;5033586;28;20118;-49
2021/07/01 02:07:35;;;;;;;35.83;13.20;;;13.90;97.90;;;;;;5031110;28;20490;-49
2021/07/01 02:10:05;;;;;;;36.75;13.63;;;13.90;97.90;;;;;;5034012;28;20124;-47
2021/07/01 02:12:31;;;;;;;34.63;13.23;;;13.90;97.90;;;;;;5029541;28;20049;-49
2021/07/01 02:14:58;;;;;;;32.42;12.35;;;13.90;97.80;;;;;;5010852;28;20041;-47
2021/07/01 02:17:24;;;;;;;36.55;12.65;;;13.90;97.80;;;;;;5017556;28;20053;-50
2021/07/01 02:19:51;;;;;;;33.20;13.25;;;13.90;97.80;;;;;;5022081;28;20371;-50
2021/07/01 02:22:17;;;;;;;31.60;11.88;;;13.90;97.80;;;;;;5034150;28;20037;-49
2021/07/01 02:24:44;;;;;;;28.60;12.38;;;13.90;97.80;;;;;;5027115;28;20037;-48
2021/07/01 02:27:12;;;;;;;32.90;13.13;;;13.90;97.80;;;;;;5033533;28;20037;-50
2021/07/01 02:29:39;;;;;;;32.67;13.85;;;13.80;97.80;;;;;;5024218;28;20045;-50
2021/07/01 02:32:05;;;;;;;41.05;14.15;;;13.90;97.80;;;;;;5028507;28;20042;-50
2021/07/01 02:34:31;;;;;;;36.13;12.40;;;13.90;97.80;;;;;;5031760;28;20037;-49
2021/07/01 02:36:58;;;;;;;31.40;12.68;;;13.90;97.80;;;;;;5021787;28;20045;-48
2021/07/01 02:39:23;;;;;;;34.85;13.13;;;13.90;97.90;;;;;;5033509;28;20033;-48
2021/07/01 02:41:49;;;;;;;37.45;13.25;;;13.90;97.80;;;;;;5015890;28;20190;-49
2021/07/01 02:44:15;;;;;;;30.70;12.57;;;13.90;97.90;;;;;;5027309;28;20494;-50
2021/07/01 02:46:44;;;;;;;30.70;12.32;;;13.90;97.90;;;;;;5019251;28;20056;-48
2021/07/01 02:49:12;;;;;;;27.90;12.65;;;13.90;97.90;;;;;;5022161;28;20068;-48
2021/07/01 02:51:38;;;;;;;33.10;12.70;;;13.90;97.90;;;;;;5044164;28;20042;-49
2021/07/01 02:54:04;;;;;;;29.60;13.05;;;13.90;97.90;;;;;;5028707;28;20034;-48
2021/07/01 02:56:39;;;;;;;35.92;13.52;;;13.90;97.90;;;;;;5031219;28;20055;-47
2021/07/01 02:59:09;;;;;;;39.90;14.13;;;13.90;97.90;;;;;;5014656;28;20409;-47
2021/07/01 03:01:35;;;;;;;31.98;12.93;;;13.90;97.90;;;;;;5031061;28;20056;-49
2021/07/01 03:04:01;;;;;;;31.02;13.32;;;14.00;97.90;;;;;;5033558;28;20040;-50
2021/07/01 03:06:27;;;;;;;32.28;12.80;;;14.00;97.90;;;;;;5032010;28;20112;-47
2021/07/01 03:08:54;;;;;;;30.95;12.63;;;14.00;98.00;;;;;;5037493;28;20049;-47
2021/07/01 03:11:21;;;;;;;40.17;13.30;;;13.90;97.90;;;;;;5031846;28;20037;-48
2021/07/01 03:13:47;;;;;;;37.92;13.60;;;13.90;97.90;;;;;;5012742;28;20040;-47
2021/07/01 03:16:16;;;;;;;31.10;13.02;;;13.90;97.90;;;;;;5016380;28;20045;-47
2021/07/01 03:18:42;;;;;;;34.40;13.10;;;14.00;98.00;;;;;;5046858;28;20044;-49
2021/07/01 03:21:07;;;;;;;38.55;13.68;;;14.00;98.00;;;;;;5041368;28;20065;-48
2021/07/01 03:23:36;;;;;;;31.80;13.45;;;13.90;98.00;;;;;;5028854;28;20395;-48
2021/07/01 03:26:03;;;;;;;30.92;13.00;;;14.00;98.00;;;;;;5029591;28;20045;-46
2021/07/01 03:28:29;;;;;;;30.30;12.10;;;14.00;98.10;;;;;;5034845;28;20167;-49
2021/07/01 03:30:55;;;;;;;28.73;12.90;;;14.00;98.10;;;;;;5031177;28;20049;-47
2021/07/01 03:33:21;;;;;;;29.70;13.18;;;14.00;98.10;;;;;;5028208;28;20052;-47
2021/07/01 03:35:47;;;;;;;32.53;13.13;;;14.00;98.10;;;;;;5024124;28;20037;-49
2021/07/01 03:38:13;;;;;;;30.98;13.35;;;14.00;98.20;;;;;;5028174;28;20426;-47
2021/07/01 03:40:39;;;;;;;37.30;15.20;;;14.00;98.10;;;;;;5036291;28;20045;-48
2021/07/01 03:43:05;;;;;;;30.88;13.45;;;14.00;98.20;;;;;;5043951;28;20518;-48
2021/07/01 03:45:31;;;;;;;33.30;13.43;;;14.00;98.20;;;;;;5035856;28;20036;-47
2021/07/01 03:47:56;;;;;;;33.85;13.13;;;14.00;98.20;;;;;;5037053;28;20041;-47
2021/07/01 03:50:22;;;;;;;27.48;12.43;;;14.00;98.20;;;;;;5037348;28;20038;-47
2021/07/01 03:52:48;;;;;;;33.42;14.10;;;14.10;98.20;;;;;;5023810;28;20060;-48
2021/07/01 03:55:14;;;;;;;27.20;13.27;;;14.00;98.30;;;;;;5023782;28;20080;-49
2021/07/01 03:57:39;;;;;;;27.40;12.75;;;14.10;98.50;;;;;;5030255;28;20047;-46
2021/07/01 04:00:08;;;;;;;34.42;13.93;;;14.10;98.30;;;;;;5016664;28;20453;-47
2021/07/01 04:02:34;;;;;;;32.30;14.00;;;14.10;98.30;;;;;;5033495;28;20113;-48
2021/07/01 04:05:00;;;;;;;34.15;13.48;;;14.10;98.30;;;;;;5031269;28;20051;-48
2021/07/01 04:07:26;;;;;;;30.88;13.10;;;14.20;98.30;;;;;;5029609;28;20037;-49
2021/07/01 04:09:51;;;;;;;37.58;14.32;;;14.10;98.30;;;;;;5039171;28;20091;-49
2021/07/01 04:12:17;;;;;;;34.65;14.32;;;14.20;98.40;;;;;;5028926;28;20414;-48
2021/07/01 04:14:43;;;;;;;33.08;14.38;;;14.20;98.40;;;;;;5032194;28;20073;-47
2021/07/01 04:17:09;;;;;;;31.27;14.63;;;14.20;98.40;;;;;;5028645;28;20040;-48
2021/07/01 04:19:35;;;;;;;33.72;15.10;;;14.20;98.40;;;;;;5029742;28;20414;-48
2021/07/01 04:22:02;;;;;;;41.83;15.55;;;14.30;98.40;;;;;;5024087;28;20490;-48
2021/07/01 04:24:27;;;;;;;37.88;15.55;;;14.20;98.40;;;;;;5043956;28;20053;-47
2021/07/01 04:26:53;;;;;;;33.40;15.38;;;14.30;98.40;;;;;;5042901;28;20412;-49
2021/07/01 04:29:20;;;;;;;38.28;16.05;;;14.30;98.50;;;;;;5027533;28;20069;-49
2021/07/01 04:31:46;;;;;;;42.28;16.60;;;14.30;98.50;;;;;;5029200;28;20033;-50
2021/07/01 04:34:12;;;;;;;31.52;15.77;;;14.30;98.50;;;;;;5026928;28;20061;-48
2021/07/01 04:36:37;;;;;;;36.92;16.25;;;14.30;98.50;;;;;;5036184;28;20049;-48
2021/07/01 04:39:04;;;;;;;35.72;16.45;;;14.30;98.50;;;;;;5038661;28;20053;-49
2021/07/01 04:41:30;;;;;;;37.85;16.88;;;14.30;98.50;;;;;;5040367;28;20053;-50
2021/07/01 04:43:56;;;;;;;42.20;17.17;;;14.30;98.40;;;;;;5002852;28;20041;-47
2021/07/01 04:46:22;;;;;;;41.50;16.38;;;14.40;98.40;;;;;;5032540;28;20482;-48
2021/07/01 04:48:47;;;;;;;43.00;17.80;;;14.30;98.40;;;;;;5024437;28;20045;-50
2021/07/01 04:51:13;;;;;;;38.70;18.20;;;14.30;98.40;;;;;;5039413;28;20112;-46
2021/07/01 04:53:40;;;;;;;33.78;17.25;;;14.30;98.40;;;;;;5038815;28;20049;-49
2021/07/01 04:56:06;;;;;;;31.77;17.10;;;14.30;98.50;;;;;;5031246;28;20176;-49
2021/07/01 04:58:32;;;;;;;39.25;17.23;;;14.30;98.50;;;;;;5032798;28;20037;-50
2021/07/01 05:00:57;;;;;;;45.10;18.05;;;14.30;98.50;;;;;;5020940;28;20048;-47
2021/07/01 05:03:23;;;;;;;43.28;18.20;;;14.30;98.50;;;;;;5027001;28;20052;-49
2021/07/01 05:05:48;;;;;;;43.83;18.25;;;14.30;98.50;;;;;;5032306;28;20033;-48
2021/07/01 05:08:16;;;;;;;40.45;18.65;;;14.30;98.50;;;;;;5025487;28;20057;-49
2021/07/01 05:10:42;;;;;;;41.83;17.83;;;14.30;98.60;;;;;;5031852;28;20456;-47
2021/07/01 05:13:07;;;;;;;42.70;19.10;;;14.30;98.60;;;;;;5027753;28;20585;-50
2021/07/01 05:15:33;;;;;;;42.35;18.05;;;14.30;98.60;;;;;;5029195;28;20486;-49
2021/07/01 05:17:59;;;;;;;38.67;17.75;;;14.30;98.60;;;;;;5025923;28;20417;-47
2021/07/01 05:20:25;;;;;;;48.45;18.98;;;14.30;98.70;;;;;;5012884;28;20064;-49
2021/07/01 05:22:50;;;;;;;42.78;18.17;;;14.30;98.70;;;;;;5027129;28;20041;-50
2021/07/01 05:25:16;;;;;;;49.08;18.67;;;14.30;98.70;;;;;;5027614;28;20068;-51
2021/07/01 05:27:42;;;;;;;34.90;17.50;;;14.30;98.70;;;;;;5031763;28;20117;-50
2021/07/01 05:30:08;;;;;;;36.03;17.42;;;14.30;98.70;;;;;;5032171;28;20542;-46
2021/07/01 05:32:34;;;;;;;40.53;18.55;;;14.30;98.70;;;;;;5021082;28;20041;-49
2021/07/01 05:34:59;;;;;;;40.92;17.70;;;14.40;98.80;;;;;;5032324;28;20041;-50
2021/07/01 05:37:25;;;;;;;36.42;17.30;;;14.40;98.80;;;;;;5030005;28;20091;-50
2021/07/01 05:39:51;;;;;;;36.33;17.75;;;14.40;98.80;;;;;;5031644;28;20509;-51
2021/07/01 05:42:17;;;;;;;37.40;17.35;;;14.40;98.80;;;;;;5029731;28;20064;-49
2021/07/01 05:44:44;;;;;;;35.65;16.63;;;14.40;98.90;;;;;;5023912;28;20044;-49
2021/07/01 05:47:09;;;;;;;40.60;18.17;;;14.40;98.80;;;;;;5027146;28;20033;-51
2021/07/01 05:49:35;;;;;;;40.15;17.45;;;14.40;98.80;;;;;;5022877;28;20536;-51
2021/07/01 05:52:04;;;;;;;38.58;17.38;;;14.40;98.80;;;;;;5025421;28;20483;-52
2021/07/01 05:54:34;;;;;;;31.48;15.20;;;14.40;98.90;;;;;;5031850;28;20042;-48
2021/07/01 05:57:00;;;;;;;35.00;15.93;;;14.40;98.90;;;;;;5047152;28;20146;-49
2021/07/01 05:59:26;;;;;;;37.70;18.02;;;14.40;98.90;;;;;;5031726;28;20064;-52
2021/07/01 06:01:52;;;;;;;33.40;16.33;;;14.40;98.90;;;;;;5033916;28;20498;-50
2021/07/01 06:04:18;;;;;;;35.13;16.77;;;14.40;98.90;;;;;;5037550;28;20499;-52
2021/07/01 06:06:53;;;;;;;41.60;18.25;;;14.40;99.00;;;;;;5032890;28;20120;-48
2021/07/01 06:09:26;;;;;;;33.55;17.63;;;14.50;99.00;;;;;;5033049;28;20053;-49
2021/07/01 06:11:57;;;;;;;44.47;18.63;;;14.40;99.00;;;;;;5034122;28;20045;-51
2021/07/01 06:14:24;;;;;;;47.63;19.10;;;14.40;99.00;;;;;;5034488;28;20037;-50
2021/07/01 06:16:53;;;;;;;41.25;19.02;;;14.40;99.00;;;;;;5030338;28;20045;-51
2021/07/01 06:19:19;;;;;;;49.85;20.08;;;14.50;99.00;;;;;;5035367;28;20052;-48
2021/07/01 06:21:46;;;;;;;45.63;20.15;;;14.50;99.00;;;;;;5037616;28;20061;-48
2021/07/01 06:24:16;;;;;;;51.63;19.08;;;14.50;99.00;;;;;;5033776;28;20052;-50
2021/07/01 06:26:43;;;;;;;41.25;17.95;;;14.50;99.20;;;;;;5045406;28;20037;-49
2021/07/01 06:29:11;;;;;;;54.97;21.27;;;14.50;99.00;;;;;;5016223;28;20485;-50
2021/07/01 06:31:37;;;;;;;46.22;20.08;;;14.50;99.00;;;;;;5022060;28;20049;-50
2021/07/01 06:34:04;;;;;;;46.65;19.92;;;14.50;99.00;;;;;;5046989;28;20502;-50
2021/07/01 06:36:32;;;;;;;56.95;20.80;;;14.50;99.00;;;;;;5048614;28;20049;-51
2021/07/01 06:39:05;;;;;;;49.35;20.13;;;14.60;99.00;;;;;;5032946;28;20168;-47
2021/07/01 06:41:35;;;;;;;52.80;20.67;;;14.50;99.00;;;;;;5017528;28;20049;-48
2021/07/01 06:44:06;;;;;;;53.35;19.13;;;14.60;99.00;;;;;;5017555;28;20060;-53
2021/07/01 06:46:33;;;;;;;47.17;20.27;;;14.60;99.00;;;;;;5046885;28;20068;-47
2021/07/01 06:49:02;;;;;;;48.15;20.25;;;14.60;99.00;;;;;;5033312;28;20406;-49
2021/07/01 06:51:37;;;;;;;41.03;19.90;;;14.60;99.00;;;;;;5033205;28;20037;-49
2021/07/01 06:54:03;;;;;;;48.58;20.77;;;14.60;99.00;;;;;;5032574;28;20052;-50
2021/07/01 06:56:38;;;;;;;51.53;19.95;;;14.60;99.00;;;;;;5033394;28;20466;-52
2021/07/01 06:59:10;;;;;;;55.90;21.35;;;14.70;99.00;;;;;;5023634;28;20068;-51
2021/07/01 07:01:37;;;;;;;53.97;20.52;;;14.70;99.00;;;;;;5000362;28;20033;-48
2021/07/01 07:04:03;;;;;;;44.97;20.30;;;14.70;99.00;;;;;;5041994;28;20129;-50
2021/07/01 07:06:29;;;;;;;55.88;21.95;;;14.70;99.00;;;;;;5033154;28;20100;-50
2021/07/01 07:08:57;;;;;;;55.03;20.25;;;14.70;99.00;;;;;;5038908;28;20041;-49
2021/07/01 07:11:23;;;;;;;50.67;21.48;;;14.70;99.10;;;;;;5027384;28;20045;-49
2021/07/01 07:13:49;;;;;;;48.55;20.40;;;14.70;99.10;;;;;;5047914;28;20116;-48
2021/07/01 07:16:16;;;;;;;53.15;20.85;;;14.80;99.10;;;;;;5015334;28;20080;-52
2021/07/01 07:18:44;;;;;;;50.45;21.58;;;14.80;99.10;;;;;;5004555;28;20096;-52
2021/07/01 07:21:17;;;;;;;46.67;20.88;;;14.80;99.20;;;;;;5033175;28;20045;-51
2021/07/01 07:23:48;;;;;;;45.42;20.88;;;14.80;99.10;;;;;;5048802;28;20042;-50
2021/07/01 07:26:17;;;;;;;42.65;20.83;;;14.80;99.10;;;;;;5015239;28;20467;-48
2021/07/01 07:28:47;;;;;;;47.75;20.45;;;14.80;99.10;;;;;;5030288;28;20053;-50
2021/07/01 07:31:22;;;;;;;55.45;22.52;;;14.90;99.10;;;;;;5038215;28;20461;-50
2021/07/01 07:33:51;;;;;;;49.78;20.85;;;14.90;99.10;;;;;;5031257;28;20061;-50
2021/07/01 07:36:20;;;;;;;46.80;20.70;;;14.90;99.00;;;;;;5046279;28;20064;-49
2021/07/01 07:38:46;;;;;;;47.65;20.00;;;14.90;99.10;;;;;;5048932;28;20046;-49
2021/07/01 07:41:20;;;;;;;45.80;21.38;;;15.00;99.10;;;;;;5017241;28;20085;-52
2021/07/01 07:43:50;;;;;;;48.20;20.42;;;15.00;99.00;;;;;;5035183;28;20069;-50
2021/07/01 07:46:21;;;;;;;42.90;19.38;;;15.00;99.10;;;;;;5047781;28;20041;-47
2021/07/01 07:48:49;;;;;;;58.80;21.58;;;14.90;99.00;;;;;;5052077;28;20406;-50
2021/07/01 07:51:17;;;;;;;48.28;20.52;;;15.00;99.00;;;;;;5035927;28;20084;-47
2021/07/01 07:53:47;;;;;;;43.42;20.52;;;15.00;98.90;;;;;;5045082;28;20056;-47
2021/07/01 07:56:16;;;;;;;42.22;21.52;;;15.00;99.00;;;;;;5031776;28;20044;-49
2021/07/01 07:58:46;;;;;;;50.45;21.70;;;15.00;98.90;;;;;;5041063;28;20121;-49
2021/07/01 08:01:12;;;;;;;44.75;20.52;;;15.00;99.00;;;;;;5040899;28;20037;-49
2021/07/01 08:03:40;;;;;;;50.03;22.25;;;15.00;99.00;;;;;;5033559;28;20560;-50
2021/07/01 08:06:08;;;;;;;55.65;22.42;;;15.10;99.00;;;;;;5034082;28;20072;-49
2021/07/01 08:08:37;;;;;;;48.10;21.83;;;15.10;99.00;;;;;;5032291;28;20095;-48
2021/07/01 08:11:06;;;;;;;44.55;19.98;;;15.10;98.90;;;;;;5048314;28;20054;-49
2021/07/01 08:13:39;;;;;;;48.85;22.50;;;15.10;98.90;;;;;;5033095;28;20038;-49
2021/07/01 08:16:06;;;;;;;49.05;21.70;;;15.20;98.90;;;;;;5033327;28;20049;-48
2021/07/01 08:18:38;;;;;;;45.88;21.63;;;15.20;98.90;;;;;;5032614;28;20068;-50
2021/07/01 08:21:09;;;;;;;50.75;23.02;;;15.20;98.90;;;;;;5016839;28;20203;-49
2021/07/01 08:23:36;;;;;;;56.72;23.08;;;15.30;98.90;;;;;;5014960;28;20046;-47
2021/07/01 08:26:03;;;;;;;53.35;22.50;;;15.30;98.90;;;;;;5031140;28;20054;-52
2021/07/01 08:28:30;;;;;;;46.60;21.60;;;15.30;98.90;;;;;;5032134;28;20037;-52
2021/07/01 08:31:15;;;;;;;49.35;22.90;;;15.40;98.90;;;;;;5015447;28;20056;-52
2021/07/01 08:33:44;;;;;;;52.80;22.35;;;15.30;98.90;;;;;;5031772;28;20092;-52
2021/07/01 08:36:22;;;;;;;43.15;20.33;;;15.30;98.80;;;;;;5014719;28;20048;-50
2021/07/01 08:38:49;;;;;;;51.40;22.65;;;15.30;98.80;;;;;;5047088;28;20072;-52
2021/07/01 08:41:18;;;;;;;46.38;22.13;;;15.40;98.90;;;;;;5033085;28;20113;-51
2021/07/01 08:44:01;;;;;;;41.75;20.55;;;15.40;98.80;;;;;;5031520;28;20051;-50
2021/07/01 08:46:28;;;;;;;49.25;22.70;;;15.40;98.70;;;;;;5044057;28;20061;-48
2021/07/01 08:49:08;;;;;;;50.40;22.92;;;15.50;98.80;;;;;;5035261;28;20135;-46
2021/07/01 08:51:43;;;;;;;48.38;22.92;;;15.50;98.80;;;;;;5031822;28;20059;-47
2021/07/01 08:54:11;;;;;;;47.45;22.40;;;15.40;98.80;;;;;;5044336;28;20051;-49
2021/07/01 08:56:38;;;;;;;50.85;22.55;;;15.50;98.80;;;;;;5041751;28;20072;-51
2021/07/01 08:59:08;;;;;;;47.78;23.10;;;15.60;98.80;;;;;;5022751;28;20092;-51
2021/07/01 09:01:37;;;;;;;46.88;22.98;;;15.70;98.80;;;;;;5032406;28;20042;-51
2021/07/01 09:04:07;;;;;;;53.65;23.45;;;15.70;98.70;;;;;;5041941;28;20041;-52
2021/07/01 09:06:36;;;;;;;56.25;25.02;;;15.70;98.70;;;;;;5035046;28;20045;-49
2021/07/01 09:09:07;;;;;;;54.20;24.73;;;15.80;98.70;;;;;;5022838;28;20514;-49
2021/07/01 09:11:41;;;;;;;50.28;23.80;;;15.90;98.70;;;;;;5028966;28;20072;-47
2021/07/01 09:14:10;;;;;;;51.05;25.08;;;15.90;98.60;;;;;;5032818;28;20530;-48
2021/07/01 09:16:38;;;;;;;49.53;24.10;;;15.90;98.60;;;;;;5031592;28;20084;-50
2021/07/01 09:19:05;;;;;;;55.58;24.17;;;15.90;98.60;;;;;;5014729;28;20161;-49
2021/07/01 09:21:32;;;;;;;56.97;26.20;;;15.90;98.50;;;;;;5030745;28;20038;-50
2021/07/01 09:24:00;;;;;;;53.03;24.75;;;15.90;98.50;;;;;;5047212;28;20052;-51
2021/07/01 09:26:27;;;;;;;56.95;26.25;;;16.00;98.60;;;;;;5032299;28;20091;-51
2021/07/01 09:28:54;;;;;;;60.28;26.42;;;16.00;98.60;;;;;;5031699;28;20041;-49
2021/07/01 09:31:22;;;;;;;57.92;26.88;;;16.00;98.60;;;;;;5032189;28;20114;-47
2021/07/01 09:33:49;;;;;;;58.80;26.20;;;16.10;98.70;;;;;;5028768;28;20033;-47
2021/07/01 09:36:16;;;;;;;57.38;25.67;;;16.10;98.70;;;;;;5019786;28;20112;-48
2021/07/01 09:38:46;;;;;;;57.45;26.83;;;16.10;98.70;;;;;;5032104;28;20406;-50
2021/07/01 09:41:13;;;;;;;51.03;24.50;;;16.20;98.70;;;;;;5047120;28;20049;-50
2021/07/01 09:43:41;;;;;;;56.88;25.88;;;16.20;98.70;;;;;;5031672;28;20128;-50
2021/07/01 09:46:12;;;;;;;58.63;24.90;;;16.30;98.70;;;;;;5031753;28;20046;-52
2021/07/01 09:48:47;;;;;;;49.75;25.77;;;16.30;98.60;;;;;;5032179;28;20560;-50
2021/07/01 09:51:15;;;;;;;53.55;24.52;;;16.30;98.50;;;;;;5017902;28;20406;-49
2021/07/01 09:53:41;;;;;;;52.22;25.35;;;16.30;98.50;;;;;;5034229;28;20368;-50
2021/07/01 09:56:10;;;;;;;59.10;25.48;;;16.40;98.50;;;;;;5018418;28;20041;-50
2021/07/01 09:58:50;;;;;;;55.17;25.83;;;16.40;98.40;;;;;;5033338;28;20037;-49
2021/07/01 10:01:23;;;;;;;53.83;24.20;;;16.50;98.40;;;;;;5045172;28;20171;-48
2021/07/01 10:03:58;;;;;;;50.88;24.75;;;16.50;98.40;;;;;;5042256;28;20053;-48
2021/07/01 10:06:24;;;;;;;52.28;25.85;;;16.40;98.40;;;;;;5030158;28;20068;-50
2021/07/01 10:08:51;;;;;;;53.70;25.70;;;16.50;98.40;;;;;;5031918;28;20072;-47
2021/07/01 10:11:33;;;;;;;45.20;24.00;;;16.50;98.50;;;;;;5031697;28;20099;-47
2021/07/01 10:14:02;;;;;;;44.63;23.23;;;16.50;98.50;;;;;;5019072;28;20414;-52
2021/07/01 10:16:30;;;;;;;53.45;24.98;;;16.50;98.50;;;;;;5016629;28;20044;-51
2021/07/01 10:18:58;;;;;;;49.42;25.33;;;16.60;98.50;;;;;;5017725;28;20111;-48
2021/07/01 10:21:27;;;;;;;55.58;25.00;;;16.60;98.60;;;;;;5018573;28;20109;-47
2021/07/01 10:24:16;;;;;;;44.00;24.20;;;16.60;98.60;;;;;;5045867;28;20133;-47
2021/07/01 10:26:48;;;;;;;55.00;24.40;;;16.60;98.70;;;;;;5015614;28;20041;-47
2021/07/01 10:29:16;;;;;;;50.25;24.10;;;16.70;98.70;;;;;;5032846;28;20042;-50
2021/07/01 10:31:59;;;;;;;47.42;23.17;;;16.70;98.70;;;;;;5030421;28;20133;-52
2021/07/01 10:34:32;;;;;;;51.10;24.63;;;16.80;98.70;;;;;;5030168;28;20049;-48
2021/07/01 10:37:18;;;;;;;46.80;24.20;;;16.80;98.60;;;;;;5031618;28;20473;-48
2021/07/01 10:39:45;;;;;;;47.70;24.02;;;16.90;98.60;;;;;;5021870;28;20065;-49
2021/07/01 10:42:13;;;;;;;45.28;24.92;;;16.90;98.60;;;;;;5024991;28;20041;-48
2021/07/01 10:44:39;;;;;;;44.08;23.67;;;17.00;98.60;;;;;;5023410;28;20182;-49
2021/07/01 10:47:24;;;;;;;49.13;23.85;;;17.00;98.60;;;;;;5038424;28;20107;-51
2021/07/01 10:49:51;;;;;;;43.30;22.63;;;17.10;98.60;;;;;;5030416;28;20092;-47
2021/07/01 10:52:17;;;;;;;46.80;22.88;;;17.20;98.40;;;;;;5030111;28;20037;-52
2021/07/01 10:55:00;;;;;;;43.00;22.58;;;17.20;98.20;;;;;;5028597;28;20030;-51
2021/07/01 10:57:29;;;;;;;;;;;17.10;97.90;;;;;;5032619;28;20045;-48
2021/07/01 10:59:57;;;;;;;40.17;22.52;;;17.10;97.80;;;;;;5028983;28;19943;-49
2021/07/01 11:02:28;;;;;;;45.30;23.08;;;17.10;97.80;;;;;;5045619;28;20053;-51
2021/07/01 11:04:56;;;;;;;38.15;23.00;;;17.10;98.10;;;;;;5028443;28;20038;-47
2021/07/01 11:07:22;;;;;;;40.08;22.08;;;17.20;98.00;;;;;;5030244;28;20050;-50
2021/07/01 11:09:53;;;;;;;37.05;22.67;;;17.30;98.00;;;;;;5028828;28;20045;-50
2021/07/01 11:12:25;;;;;;;35.97;21.02;;;17.40;98.10;;;;;;5045302;28;20095;-51
2021/07/01 11:14:54;;;;;;;38.50;22.02;;;17.40;98.00;;;;;;5028908;28;20064;-52
2021/07/01 11:17:32;;;;;;;38.35;21.73;;;17.40;98.00;;;;;;5031189;28;20049;-48
2021/07/01 11:20:10;;;;;;;37.28;20.73;;;17.50;98.00;;;;;;5032695;28;20038;-49
2021/07/01 11:22:44;;;;;;;36.38;21.88;;;17.50;97.90;;;;;;5022520;28;20033;-50
2021/07/01 11:25:27;;;;;;;37.38;21.67;;;17.50;97.90;;;;;;5032639;28;20457;-47
2021/07/01 11:28:12;;;;;;;36.00;19.70;;;17.50;97.80;;;;;;5033363;28;20042;-51
2021/07/01 11:30:58;;;;;;;35.00;20.30;;;17.60;97.70;;;;;;5032437;28;20041;-50
2021/07/01 11:33:23;;;;;;;32.72;20.13;;;17.60;97.70;;;;;;5033234;28;20041;-51
2021/07/01 11:36:07;;;;;;;37.55;21.40;;;17.60;97.60;;;;;;5033158;28;20036;-48
2021/07/01 11:38:32;;;;;;;34.45;19.33;;;17.70;97.70;;;;;;5032470;28;20339;-47
2021/07/01 11:41:02;;;;;;;34.00;19.80;;;17.70;97.60;;;;;;5032770;28;20103;-47
2021/07/01 11:43:28;;;;;;;33.30;20.33;;;17.70;97.40;;;;;;5032987;28;20556;-51
2021/07/01 11:45:54;;;;;;;34.90;19.70;;;17.80;97.40;;;;;;5031389;28;20037;-50
2021/07/01 11:48:22;;;;;;;32.22;20.25;;;17.80;97.50;;;;;;5033070;28;20037;-51
2021/07/01 11:50:49;;;;;;;34.08;20.42;;;17.90;97.50;;;;;;5045722;28;20123;-49
2021/07/01 11:53:20;;;;;;;36.30;20.58;;;18.10;97.50;;;;;;5027567;28;20059;-48
2021/07/01 11:55:48;;;;;;;34.15;20.67;;;18.20;97.40;;;;;;5021240;28;20038;-52
2021/07/01 11:58:15;;;;;;;32.40;19.17;;;18.30;97.10;;;;;;5013468;28;20045;-52
2021/07/01 12:00:41;;;;;;;28.98;18.48;;;18.40;96.80;;;;;;5022285;28;20057;-50
2021/07/01 12:03:07;;;;;;;35.63;19.77;;;18.50;96.60;;;;;;5031875;28;20045;-49
2021/07/01 12:05:34;;;;;;;32.55;19.58;;;18.60;96.40;;;;;;5029376;28;20060;-48
2021/07/01 12:08:02;;;;;;;33.83;19.08;;;18.70;96.30;;;;;;5029651;28;20041;-50
2021/07/01 12:10:28;;;;;;;33.20;19.33;;;18.80;96.20;;;;;;5025240;28;20046;-50
2021/07/01 12:12:55;;;;;;;32.42;17.92;;;18.80;96.10;;;;;;5024380;28;20119;-49
2021/07/01 12:15:21;;;;;;;33.88;18.30;;;18.70;96.00;;;;;;5025259;28;20137;-47
2021/07/01 12:18:04;;;;;;;30.42;18.52;;;18.70;95.90;;;;;;5022543;28;20112;-51
2021/07/01 12:20:41;;;;;;;34.00;18.58;;;18.60;95.90;;;;;;5028032;28;20044;-50
2021/07/01 12:23:22;;;;;;;30.60;19.10;;;18.70;95.80;;;;;;5033138;28;20468;-47
2021/07/01 12:25:53;;;;;;;31.27;18.57;;;18.70;95.70;;;;;;5030884;28;20033;-53
2021/07/01 12:28:23;;;;;;;30.08;17.52;;;18.70;95.10;;;;;;5029610;28;20299;-53
2021/07/01 12:31:08;;;;;;;32.78;18.67;;;18.70;95.20;;;;;;5029088;28;20045;-50
2021/07/01 12:33:39;;;;;;;33.33;19.80;;;18.70;95.30;;;;;;5029171;28;20238;-52